Time;durP1;ratioP1;P1;durP2;ratioP2;P2;SDS_P1;SDS_P2;PMS_P1;PMS_P2;Temp;Humidity;BMP_temperature;BMP_pressure;BME280_temperature;BME280_humidity;BME280_pressure;Samples;Min_cycle;Max_cycle;Signal;HPM_P1;HPM_P2
2022/03/05 00:00:55;;;;;;;9.07;6.23;;;-1.60;79.70;-1.00;96917.00;;;;5111319;28;20946;-70
2022/03/05 00:03:44;;;;;;;9.30;6.70;;;-1.60;79.70;-0.90;96915.00;;;;5120527;27;20465;-69
2022/03/05 00:06:32;;;;;;;17.03;9.13;;;-1.50;79.70;-1.30;96911.00;;;;5120251;27;20416;-67
2022/03/05 00:09:23;;;;;;;15.30;9.00;;;-1.50;79.60;-1.00;96907.00;;;;5122599;27;20472;-68
2022/03/05 00:12:11;;;;;;;11.20;6.03;;;-1.50;79.30;-1.00;96913.00;;;;5122707;27;20430;-68
2022/03/05 00:15:00;;;;;;;10.40;5.90;;;-1.50;79.00;-1.00;96910.00;;;;5122093;27;20424;-69
2022/03/05 00:17:49;;;;;;;6.73;5.60;;;-1.50;79.00;-0.90;96914.00;;;;5115724;27;20458;-68
2022/03/05 00:20:38;;;;;;;10.23;6.00;;;-1.40;79.00;-1.10;96906.00;;;;5115000;27;20424;-68
2022/03/05 00:23:27;;;;;;;9.53;5.83;;;-1.40;79.60;-1.00;96918.00;;;;5119800;27;20447;-68
2022/03/05 00:26:17;;;;;;;5.30;4.77;;;-1.40;79.80;-1.20;96912.00;;;;5119902;27;20436;-69
2022/03/05 00:29:07;;;;;;;6.87;4.70;;;-1.50;80.10;-1.20;96911.00;;;;5122382;27;20812;-68
2022/03/05 00:31:56;;;;;;;7.77;5.53;;;-1.50;80.40;-0.90;96922.00;;;;5117840;27;21202;-68
2022/03/05 00:34:45;;;;;;;7.57;5.53;;;-1.50;80.90;-0.90;96921.00;;;;5121952;27;20994;-68
2022/03/05 00:37:35;;;;;;;6.50;4.43;;;-1.40;80.70;-0.90;96921.00;;;;5122673;27;20793;-68
2022/03/05 00:40:24;;;;;;;8.50;5.87;;;-1.40;80.60;-0.80;96913.00;;;;5117308;27;20459;-68
2022/03/05 00:43:14;;;;;;;8.07;5.43;;;-1.40;80.30;-1.00;96913.00;;;;5118073;27;20440;-68
2022/03/05 00:46:03;;;;;;;6.67;5.30;;;-1.40;80.40;-1.00;96910.00;;;;5109591;28;21037;-68
2022/03/05 00:48:52;;;;;;;8.93;5.57;;;-1.40;80.10;-0.90;96911.00;;;;5109842;28;20425;-68
2022/03/05 00:51:40;;;;;;;8.77;4.67;;;-1.40;79.90;-1.00;96915.00;;;;5109457;28;20413;-69
2022/03/05 00:54:29;;;;;;;8.73;5.40;;;-0.50;80.60;-1.20;96908.00;;;;5109820;28;20428;-68
2022/03/05 00:57:18;;;;;;;12.40;5.77;;;-1.40;80.20;-1.00;96905.00;;;;5110627;28;20791;-68
2022/03/05 01:00:11;;;;;;;9.50;6.10;;;-1.40;80.50;-0.80;96905.00;;;;5112985;27;20459;-68
2022/03/05 01:03:00;;;;;;;6.30;5.47;;;-1.30;80.20;-0.80;96905.00;;;;5114164;27;20462;-68
2022/03/05 01:05:50;;;;;;;10.83;5.33;;;-1.30;80.10;-1.00;96911.00;;;;5116917;27;20428;-69
2022/03/05 01:08:39;;;;;;;8.30;5.50;;;-1.30;80.60;-1.00;96908.00;;;;5120906;27;20428;-68
2022/03/05 01:11:28;;;;;;;6.60;4.67;;;-1.30;81.20;-0.90;96904.00;;;;5118028;27;20970;-68
2022/03/05 01:14:17;;;;;;;8.33;5.37;;;-1.30;81.20;-0.80;96894.00;;;;5118634;27;20791;-69
2022/03/05 01:17:07;;;;;;;7.57;4.93;;;-1.30;81.00;-0.70;96899.00;;;;5118221;27;20966;-68
2022/03/05 01:19:56;;;;;;;9.40;5.83;;;-1.30;81.00;-0.70;96899.00;;;;5125154;27;21017;-67
2022/03/05 01:22:45;;;;;;;7.37;4.73;;;-1.20;81.00;-0.60;96893.00;;;;5115994;27;20452;-68
2022/03/05 01:25:33;;;;;;;7.30;5.47;;;-1.20;81.20;-0.60;96884.00;;;;5115546;27;20415;-68
2022/03/05 01:28:22;;;;;;;8.70;5.90;;;-1.20;81.60;-0.60;96894.00;;;;5120835;27;20429;-68
2022/03/05 01:31:11;;;;;;;8.30;4.77;;;-1.20;81.80;-0.70;96897.00;;;;5118966;27;20787;-68
2022/03/05 01:34:01;;;;;;;7.23;4.77;;;-1.20;81.90;-0.70;96895.00;;;;5116796;27;20456;-68
2022/03/05 01:36:50;;;;;;;7.63;4.87;;;-1.20;81.50;-0.70;96880.00;;;;5117688;27;20914;-69
2022/03/05 01:39:41;;;;;;;6.93;4.90;;;-1.20;82.70;-0.80;96879.00;;;;5119057;27;20445;-69
2022/03/05 01:42:30;;;;;;;6.27;4.50;;;-1.20;82.70;-1.00;96874.00;;;;5118151;27;20448;-69
2022/03/05 01:45:18;;;;;;;6.73;5.47;;;-1.30;83.60;-0.80;96876.00;;;;5114563;27;20417;-69
2022/03/05 01:48:08;;;;;;;8.97;5.50;;;-1.20;84.20;-0.70;96871.00;;;;5117708;27;20405;-68
2022/03/05 01:50:58;;;;;;;6.73;5.23;;;-1.20;84.10;-0.80;96858.00;;;;5121457;27;20437;-69
2022/03/05 01:53:47;;;;;;;7.47;4.57;;;-1.20;84.30;-0.60;96863.00;;;;5118255;27;20938;-67
2022/03/05 01:56:38;;;;;;;7.60;5.37;;;-1.20;84.60;-0.60;96856.00;;;;5115537;27;20836;-68
2022/03/05 01:59:27;;;;;;;8.87;5.23;;;-1.20;84.90;-0.60;96851.00;;;;5113048;27;20479;-69
2022/03/05 02:02:16;;;;;;;6.53;5.47;;;-1.20;84.60;-0.70;96855.00;;;;5119421;27;20420;-68
2022/03/05 02:05:06;;;;;;;8.30;5.43;;;-1.20;84.50;-0.60;96856.00;;;;5128026;22;20490;-81
2022/03/05 02:07:56;;;;;;;10.10;5.30;;;-1.20;84.70;-0.60;96848.00;;;;5118641;27;20420;-81
2022/03/05 02:10:47;;;;;;;9.20;4.60;;;-1.20;85.00;-0.80;96849.00;;;;5119450;27;20436;-81
2022/03/05 02:13:37;;;;;;;7.97;4.83;;;-1.20;85.10;-0.70;96861.00;;;;5112616;27;20421;-81
2022/03/05 02:16:26;;;;;;;7.77;5.90;;;-1.20;85.00;-0.70;96852.00;;;;5113225;27;20412;-81
2022/03/05 02:19:15;;;;;;;9.07;6.67;;;-1.20;85.70;-0.70;96857.00;;;;5111293;28;20541;-81
2022/03/05 02:22:10;;;;;;;8.40;5.57;;;-1.20;85.60;-0.70;96860.00;;;;5112185;27;20480;-82
2022/03/05 02:24:59;;;;;;;7.03;5.13;;;-1.20;86.10;-0.70;96857.00;;;;5113546;28;20433;-81
2022/03/05 02:27:48;;;;;;;8.20;4.97;;;-1.20;86.50;-0.80;96861.00;;;;5110407;28;20428;-81
2022/03/05 02:30:37;;;;;;;8.97;5.90;;;-1.20;86.40;-0.90;96857.00;;;;5113441;27;20553;-82
2022/03/05 02:33:26;;;;;;;6.67;5.50;;;-1.20;86.90;-0.90;96865.00;;;;5110359;28;20416;-82
2022/03/05 02:36:14;;;;;;;8.73;6.27;;;-1.30;87.00;-1.00;96863.00;;;;5111108;28;20429;-81
2022/03/05 02:39:05;;;;;;;8.67;5.63;;;-1.30;87.20;-1.50;96870.00;;;;5118561;27;20440;-81
2022/03/05 02:41:54;;;;;;;8.50;4.87;;;-1.40;88.00;-1.40;96865.00;;;;5119613;27;20436;-80
2022/03/05 02:44:43;;;;;;;7.73;4.73;;;-1.50;88.00;-1.20;96864.00;;;;5112872;27;20431;-80
2022/03/05 02:47:32;;;;;;;7.03;5.30;;;-1.50;87.50;-1.00;96868.00;;;;5114083;27;20428;-81
2022/03/05 02:50:21;;;;;;;7.57;4.87;;;-1.50;87.70;-0.90;96871.00;;;;5112059;27;20450;-82
2022/03/05 02:53:10;;;;;;;8.40;4.77;;;-1.50;88.10;-1.10;96852.00;;;;5131741;22;20433;-66
2022/03/05 02:56:01;;;;;;;8.07;5.43;;;-1.40;88.30;-1.30;96861.00;;;;5108730;28;20935;-65
2022/03/05 02:58:49;;;;;;;8.23;5.93;;;-1.50;88.60;-1.30;96866.00;;;;5112225;27;20424;-65
2022/03/05 03:01:38;;;;;;;8.40;5.83;;;-1.50;89.10;-1.30;96861.00;;;;5116905;27;20456;-65
2022/03/05 03:04:27;;;;;;;6.73;5.60;;;-1.50;89.50;-1.30;96856.00;;;;5107685;27;20519;-65
2022/03/05 03:07:16;;;;;;;7.53;5.17;;;-1.60;90.00;-1.30;96859.00;;;;5098178;28;20421;-65
2022/03/05 03:10:06;;;;;;;6.37;4.90;;;-1.60;90.30;-1.20;96872.00;;;;5102162;28;20819;-65
2022/03/05 03:12:58;;;;;;;6.53;5.03;;;-1.60;90.30;-1.10;96866.00;;;;5094359;28;20816;-65
2022/03/05 03:15:46;;;;;;;7.97;5.67;;;-1.60;90.30;-1.40;96868.00;;;;5097029;28;20429;-65
2022/03/05 03:18:35;;;;;;;5.00;3.90;;;-1.60;90.50;-1.50;96862.00;;;;5104234;28;20424;-65
2022/03/05 03:21:24;;;;;;;8.20;5.47;;;-1.60;90.80;-1.30;96863.00;;;;5095856;28;21210;-65
2022/03/05 03:24:12;;;;;;;7.43;5.57;;;-1.70;90.90;-1.30;96867.00;;;;5097823;28;20456;-65
2022/03/05 03:27:02;;;;;;;9.93;5.67;;;-1.60;91.00;-1.10;96864.00;;;;5102599;28;20431;-65
2022/03/05 03:29:52;;;;;;;7.00;5.17;;;-1.60;91.30;-1.00;96856.00;;;;5098718;28;20428;-65
2022/03/05 03:32:42;;;;;;;7.70;5.43;;;-1.50;91.30;-0.90;96878.00;;;;5097284;28;20447;-65
2022/03/05 03:35:32;;;;;;;6.23;4.57;;;-1.50;91.60;-0.90;96877.00;;;;5098279;28;20418;-64
2022/03/05 03:38:21;;;;;;;8.47;5.43;;;-1.40;91.20;-1.00;96870.00;;;;5099000;27;20413;-65
2022/03/05 03:41:09;;;;;;;7.53;5.30;;;-1.40;91.00;-0.90;96880.00;;;;5096183;28;20460;-65
2022/03/05 03:43:58;;;;;;;7.00;5.13;;;-1.40;91.00;-0.80;96872.00;;;;5101676;28;20460;-65
2022/03/05 03:46:48;;;;;;;6.37;4.83;;;-1.40;91.30;-0.80;96871.00;;;;5096180;28;20421;-65
2022/03/05 03:49:37;;;;;;;8.03;5.47;;;-1.40;91.30;-0.80;96866.00;;;;5098091;28;20920;-65
2022/03/05 03:52:26;;;;;;;7.17;5.43;;;-1.30;91.50;-0.90;96869.00;;;;5098179;28;20990;-65
2022/03/05 03:55:18;;;;;;;8.90;4.83;;;-1.30;91.50;-1.10;96864.00;;;;5094661;28;20456;-65
2022/03/05 03:58:06;;;;;;;12.47;5.53;;;-1.30;91.70;-1.00;96867.00;;;;5107261;28;20412;-65
2022/03/05 04:00:55;;;;;;;9.30;5.17;;;-1.30;91.80;-1.00;96858.00;;;;5099428;28;20995;-65
2022/03/05 04:03:45;;;;;;;8.30;5.87;;;-1.40;92.10;-1.20;96870.00;;;;5096536;28;20449;-65
2022/03/05 04:09:36;;;;;;;8.97;4.60;;;-1.40;92.70;-1.60;96865.00;;;;5102159;28;20764;-65
2022/03/05 04:12:26;;;;;;;7.70;5.60;;;-1.50;92.80;-1.30;96870.00;;;;5092398;28;20433;-65
2022/03/05 04:15:14;;;;;;;7.97;5.23;;;-1.50;93.00;-1.00;96872.00;;;;5102561;28;21113;-65
2022/03/05 04:18:04;;;;;;;9.03;5.77;;;-1.50;93.10;-1.10;96865.00;;;;5100105;28;20425;-65
2022/03/05 04:20:54;;;;;;;7.10;5.10;;;-1.50;93.10;-1.00;96872.00;;;;5097463;28;20457;-65
2022/03/05 04:23:42;;;;;;;5.23;4.63;;;-1.50;93.30;-1.10;96870.00;;;;5095091;28;20458;-65
2022/03/05 04:26:31;;;;;;;8.80;5.47;;;-1.50;93.40;-1.00;96867.00;;;;5098384;28;20420;-65
2022/03/05 04:29:20;;;;;;;9.23;6.23;;;-1.50;93.50;-1.00;96872.00;;;;5101056;28;20436;-65
2022/03/05 04:32:09;;;;;;;10.77;6.10;;;-1.40;93.70;-0.90;96867.00;;;;5093247;28;20410;-65
2022/03/05 04:34:58;;;;;;;11.53;6.17;;;-1.40;93.60;-0.90;96859.00;;;;5096823;28;20832;-65
2022/03/05 04:37:50;;;;;;;10.50;6.33;;;-1.40;93.70;-0.90;96861.00;;;;5097756;28;21137;-65
2022/03/05 04:40:39;;;;;;;11.63;5.60;;;-1.40;93.80;-0.80;96858.00;;;;5099833;28;20845;-66
2022/03/05 04:43:28;;;;;;;10.47;5.83;;;-1.40;93.90;-0.80;96871.00;;;;5090226;28;20452;-65
2022/03/05 04:46:17;;;;;;;10.50;5.77;;;-1.40;94.00;-0.80;96866.00;;;;5096364;28;20791;-65
2022/03/05 04:49:06;;;;;;;7.13;5.43;;;-1.40;94.00;-0.80;96872.00;;;;5098509;28;20969;-65
2022/03/05 04:51:55;;;;;;;6.63;5.90;;;-1.40;93.90;-0.90;96861.00;;;;5099780;28;20425;-65
2022/03/05 04:54:45;;;;;;;8.43;6.30;;;-1.30;94.30;-1.00;96861.00;;;;5097974;28;20444;-65
2022/03/05 04:57:34;;;;;;;9.03;6.53;;;-1.40;94.70;-0.90;96865.00;;;;5094843;28;20430;-65
2022/03/05 05:00:22;;;;;;;8.37;6.30;;;-1.40;94.80;-1.00;96864.00;;;;5096052;28;20781;-65
2022/03/05 05:03:11;;;;;;;9.17;6.57;;;-1.40;95.00;-1.40;96866.00;;;;5093064;28;20429;-65
2022/03/05 05:06:00;;;;;;;8.37;6.03;;;-1.50;95.40;-1.50;96854.00;;;;5090137;28;20434;-65
2022/03/05 05:08:49;;;;;;;11.07;6.40;;;-1.50;95.90;-1.60;96848.00;;;;5090403;28;20429;-65
2022/03/05 05:11:40;;;;;;;10.90;5.40;;;-1.60;96.10;-1.30;96852.00;;;;5095851;28;20440;-65
2022/03/05 05:14:29;;;;;;;8.13;6.13;;;-1.60;96.70;-1.50;96850.00;;;;5102079;27;20448;-65
2022/03/05 05:17:18;;;;;;;11.40;5.80;;;-1.70;96.90;-1.30;96846.00;;;;5096960;28;20423;-65
2022/03/05 05:20:09;;;;;;;10.53;5.87;;;-1.70;97.00;-1.10;96855.00;;;;5091016;28;20418;-65
2022/03/05 05:22:58;;;;;;;9.63;5.37;;;-1.70;97.40;-1.00;96851.00;;;;5094919;28;20806;-65
2022/03/05 05:25:46;;;;;;;6.10;4.50;;;-1.60;97.60;-1.10;96848.00;;;;5089651;28;20418;-65
2022/03/05 05:28:37;;;;;;;8.77;5.83;;;-1.60;97.60;-1.10;96854.00;;;;5098773;28;20421;-65
2022/03/05 05:31:25;;;;;;;6.33;4.03;;;-1.60;97.60;-1.10;96855.00;;;;5105370;28;20433;-65
2022/03/05 05:34:14;;;;;;;11.60;6.13;;;-1.60;97.60;-1.00;96854.00;;;;5094502;28;20448;-65
2022/03/05 05:37:03;;;;;;;5.40;4.80;;;-1.60;97.40;-1.00;96858.00;;;;5089431;28;20417;-65
2022/03/05 05:39:52;;;;;;;11.77;6.43;;;-1.50;97.80;-0.90;96861.00;;;;5104603;27;20430;-65
2022/03/05 05:42:43;;;;;;;10.90;7.03;;;-1.50;98.10;-0.90;96865.00;;;;5091543;28;20507;-65
2022/03/05 05:45:33;;;;;;;10.23;6.63;;;-1.50;98.30;-0.80;96866.00;;;;5097273;28;20438;-65
2022/03/05 05:48:22;;;;;;;10.67;6.60;;;-1.50;98.40;-0.70;96877.00;;;;5088851;28;20431;-65
2022/03/05 05:51:11;;;;;;;9.40;7.93;;;-1.40;98.80;-0.70;96866.00;;;;5090705;28;20422;-65
2022/03/05 05:54:00;;;;;;;9.40;7.03;;;-1.30;98.90;-0.80;96863.00;;;;5104831;28;20461;-65
2022/03/05 05:56:49;;;;;;;16.50;9.97;;;-1.30;99.00;-0.60;96868.00;;;;5095542;28;20416;-65
2022/03/05 05:59:37;;;;;;;13.63;8.13;;;-1.20;98.60;-0.60;96858.00;;;;5089536;28;20440;-65
2022/03/05 06:02:28;;;;;;;12.90;8.17;;;-1.10;98.70;-0.50;96866.00;;;;5096501;28;20548;-65
2022/03/05 06:05:17;;;;;;;11.80;9.40;;;-1.10;98.70;-0.30;96870.00;;;;5099812;28;20964;-65
2022/03/05 06:08:06;;;;;;;9.53;7.40;;;-1.00;98.60;-0.20;96875.00;;;;5088257;28;20441;-65
2022/03/05 06:10:57;;;;;;;10.43;6.97;;;-0.90;98.60;-0.20;96872.00;;;;5095512;28;20447;-65
2022/03/05 06:13:45;;;;;;;10.27;7.63;;;-0.90;98.80;-0.10;96886.00;;;;5087106;28;20456;-65
2022/03/05 06:16:35;;;;;;;10.87;6.70;;;-0.80;98.70;-0.10;96884.00;;;;5087467;28;20434;-65
2022/03/05 06:19:25;;;;;;;12.43;8.23;;;-0.80;98.80;0.10;96885.00;;;;5088415;28;20434;-66
2022/03/05 06:22:14;;;;;;;10.80;7.87;;;-0.70;98.90;0.10;96871.00;;;;5088411;28;20460;-65
2022/03/05 06:25:03;;;;;;;14.07;8.97;;;-0.70;99.00;0.20;96883.00;;;;5085927;28;20445;-65
2022/03/05 06:27:51;;;;;;;15.60;8.53;;;-0.60;99.00;0.20;96888.00;;;;5087499;28;20451;-65
2022/03/05 06:30:40;;;;;;;12.67;8.23;;;-0.50;99.00;0.40;96890.00;;;;5085019;28;20442;-65
2022/03/05 06:33:29;;;;;;;12.60;7.87;;;-0.50;98.80;0.50;96895.00;;;;5087081;28;20453;-65
2022/03/05 06:36:19;;;;;;;15.87;8.60;;;-0.40;98.80;0.50;96889.00;;;;5086328;28;20440;-65
2022/03/05 06:39:08;;;;;;;14.37;8.10;;;-0.30;98.70;0.70;96895.00;;;;5089252;28;21065;-65
2022/03/05 06:41:57;;;;;;;12.33;7.43;;;-0.20;98.60;0.70;96906.00;;;;5086777;28;20838;-65
2022/03/05 06:44:46;;;;;;;12.77;8.53;;;-0.20;98.50;0.70;96912.00;;;;5086455;28;20448;-65
2022/03/05 06:47:35;;;;;;;13.27;9.00;;;-0.10;98.40;0.90;96912.00;;;;5085731;28;20966;-65
2022/03/05 06:50:26;;;;;;;12.40;8.10;;;0.00;98.40;0.90;96903.00;;;;5087998;28;20506;-65
2022/03/05 06:53:16;;;;;;;9.53;7.63;;;0.10;98.50;0.90;96910.00;;;;5086746;28;20974;-65
2022/03/05 06:56:06;;;;;;;12.33;8.60;;;0.10;98.40;1.20;96910.00;;;;5085633;28;20943;-65
2022/03/05 06:58:54;;;;;;;13.57;8.50;;;0.20;98.30;1.30;96920.00;;;;5087415;28;20445;-65
2022/03/05 07:01:43;;;;;;;9.50;6.60;;;0.30;98.00;1.40;96918.00;;;;5087684;28;20844;-65
2022/03/05 07:04:32;;;;;;;14.07;8.17;;;0.40;97.80;1.60;96916.00;;;;5086258;28;20445;-65
2022/03/05 07:07:21;;;;;;;10.53;7.50;;;0.50;97.00;1.70;96910.00;;;;5094557;28;20765;-65
2022/03/05 07:10:12;;;;;;;9.67;6.77;;;0.60;96.60;1.80;96917.00;;;;5096148;28;20452;-65
2022/03/05 07:13:01;;;;;;;10.20;6.87;;;0.90;96.50;2.00;96924.00;;;;5097486;28;20982;-65
2022/03/05 07:15:50;;;;;;;10.27;7.17;;;0.90;96.00;2.00;96928.00;;;;5092010;28;20893;-65
2022/03/05 07:18:39;;;;;;;11.43;7.47;;;1.00;95.00;2.20;96924.00;;;;5088394;28;20430;-65
2022/03/05 07:21:28;;;;;;;12.10;7.53;;;1.10;94.70;2.40;96922.00;;;;5098058;28;20421;-65
2022/03/05 07:24:17;;;;;;;30.07;17.00;;;1.30;94.60;2.40;96924.00;;;;5093124;28;20456;-65
2022/03/05 07:27:07;;;;;;;42.27;21.37;;;1.40;94.50;2.50;96922.00;;;;5092319;28;20482;-65
2022/03/05 07:29:56;;;;;;;13.13;9.13;;;1.50;94.10;2.50;96924.00;;;;5096283;28;20892;-66
2022/03/05 07:32:46;;;;;;;11.53;8.10;;;1.60;93.70;2.40;96927.00;;;;5096234;28;20425;-66
2022/03/05 07:35:35;;;;;;;14.70;10.00;;;1.60;93.20;2.60;96925.00;;;;5094011;28;20434;-66
2022/03/05 07:38:24;;;;;;;15.83;10.20;;;1.70;93.10;2.80;96924.00;;;;5099115;27;20447;-66
2022/03/05 07:41:13;;;;;;;13.73;10.20;;;1.70;92.80;2.80;96936.00;;;;5095982;28;20427;-65
2022/03/05 07:44:04;;;;;;;14.30;9.00;;;1.80;92.50;2.80;96928.00;;;;5096239;28;20456;-65
2022/03/05 07:46:53;;;;;;;12.13;9.40;;;1.80;92.30;2.60;96932.00;;;;5097295;28;20443;-66
2022/03/05 07:49:42;;;;;;;13.23;8.43;;;1.80;91.50;2.60;96934.00;;;;5094026;28;20455;-66
2022/03/05 07:52:30;;;;;;;11.53;7.90;;;1.80;91.30;2.70;96946.00;;;;5100001;28;20437;-65
2022/03/05 07:55:19;;;;;;;8.77;7.07;;;1.90;91.30;2.80;96956.00;;;;5096434;28;20457;-65
2022/03/05 07:58:09;;;;;;;10.33;6.93;;;1.90;91.20;2.80;96945.00;;;;5095013;28;20432;-65
2022/03/05 08:00:59;;;;;;;8.23;6.43;;;1.90;90.60;2.90;96963.00;;;;5098087;28;20433;-65
2022/03/05 08:03:48;;;;;;;10.57;7.00;;;2.00;90.30;2.70;96952.00;;;;5105762;28;20555;-65
2022/03/05 08:06:37;;;;;;;8.77;6.10;;;2.00;89.30;3.10;96958.00;;;;5093246;28;20433;-65
2022/03/05 08:09:25;;;;;;;10.13;6.90;;;2.10;89.50;3.20;96951.00;;;;5103594;28;20421;-65
2022/03/05 08:12:14;;;;;;;7.57;6.37;;;2.20;90.10;3.30;96958.00;;;;5114835;27;20424;-65
2022/03/05 08:15:03;;;;;;;10.87;6.67;;;2.40;89.70;3.70;96972.00;;;;5101772;27;20456;-65
2022/03/05 08:17:56;;;;;;;9.03;5.90;;;2.50;89.80;3.90;96964.00;;;;5116173;27;20432;-65
2022/03/05 08:20:45;;;;;;;12.73;7.60;;;2.60;89.40;3.90;96959.00;;;;5101307;27;20422;-65
2022/03/05 08:23:34;;;;;;;14.03;9.07;;;2.80;88.40;4.10;96967.00;;;;5116920;27;20469;-65
2022/03/05 08:26:23;;;;;;;13.33;8.37;;;2.90;87.80;4.20;96966.00;;;;5108524;27;20428;-65
2022/03/05 08:29:12;;;;;;;20.30;9.20;;;3.00;87.40;4.40;96964.00;;;;5107368;27;20451;-65
2022/03/05 08:32:01;;;;;;;11.17;8.73;;;3.20;87.30;4.00;96960.00;;;;5108799;27;20417;-65
2022/03/05 08:34:51;;;;;;;11.07;6.83;;;3.30;86.00;4.30;96975.00;;;;5108874;28;20454;-65
2022/03/05 08:37:41;;;;;;;10.93;6.07;;;3.30;85.20;4.40;96974.00;;;;5095513;28;20437;-65
2022/03/05 08:40:29;;;;;;;11.20;7.63;;;3.40;84.80;4.60;96975.00;;;;5098083;28;20429;-65
2022/03/05 08:43:18;;;;;;;11.33;6.37;;;3.50;84.10;4.80;96980.00;;;;5092763;28;20468;-65
2022/03/05 08:46:07;;;;;;;9.13;6.73;;;3.60;83.20;5.00;96979.00;;;;5095265;28;21038;-65
2022/03/05 08:48:56;;;;;;;10.77;6.03;;;3.70;82.80;4.80;96975.00;;;;5099601;27;20429;-65
2022/03/05 08:51:46;;;;;;;8.37;6.00;;;3.80;80.80;4.40;96963.00;;;;5099664;27;20505;-65
2022/03/05 08:54:35;;;;;;;10.90;5.67;;;3.80;79.90;4.60;96967.00;;;;5095768;27;20463;-65
2022/03/05 08:57:24;;;;;;;8.87;5.90;;;3.80;79.60;4.50;96976.00;;;;5095606;28;20437;-65
2022/03/05 09:00:16;;;;;;;7.33;5.77;;;3.80;79.70;4.60;96968.00;;;;5094543;28;20445;-65
2022/03/05 09:03:05;;;;;;;7.80;5.47;;;3.80;79.30;4.70;96974.00;;;;5095109;28;20456;-66
2022/03/05 09:05:54;;;;;;;8.00;5.97;;;3.80;79.90;4.70;96975.00;;;;5095575;28;20992;-65
2022/03/05 09:08:44;;;;;;;7.60;5.50;;;3.80;80.90;5.00;96967.00;;;;5098327;28;20783;-66
2022/03/05 09:11:34;;;;;;;6.70;5.53;;;3.90;81.20;4.80;96973.00;;;;5101255;27;20456;-66
2022/03/05 09:14:23;;;;;;;7.80;5.73;;;3.90;81.00;4.80;96970.00;;;;5102980;28;20441;-66
2022/03/05 09:17:11;;;;;;;6.53;4.90;;;4.00;82.30;4.30;96976.00;;;;5103939;28;20439;-66
2022/03/05 09:20:00;;;;;;;9.87;5.43;;;3.90;81.10;4.30;96979.00;;;;5091528;28;20448;-66
2022/03/05 09:22:49;;;;;;;8.13;5.17;;;3.80;81.90;4.50;96969.00;;;;5098201;28;20488;-65
2022/03/05 09:25:39;;;;;;;8.17;5.10;;;3.80;82.30;4.50;96979.00;;;;5098632;28;20433;-66
2022/03/05 09:28:28;;;;;;;7.23;4.80;;;3.80;82.50;5.00;96984.00;;;;5095872;28;20422;-66
2022/03/05 09:31:20;;;;;;;6.13;5.53;;;3.90;83.20;4.50;96984.00;;;;5092797;27;20579;-63
2022/03/05 09:34:08;;;;;;;9.30;5.30;;;3.90;82.30;4.80;96999.00;;;;5097495;27;20452;-64
2022/03/05 09:36:57;;;;;;;6.73;5.70;;;3.80;82.20;4.50;96983.00;;;;5097150;27;20438;-64
2022/03/05 09:39:47;;;;;;;7.93;6.07;;;3.80;82.70;5.20;96991.00;;;;5105122;27;20444;-64
2022/03/05 09:42:41;;;;;;;7.20;4.67;;;3.90;83.40;5.00;96984.00;;;;5098530;28;20425;-64
2022/03/05 09:45:30;;;;;;;5.80;5.00;;;3.90;82.90;5.20;96991.00;;;;5095006;28;20425;-64
2022/03/05 09:48:19;;;;;;;11.67;6.00;;;4.00;83.70;4.60;96992.00;;;;5095830;28;20441;-64
2022/03/05 09:51:08;;;;;;;7.97;5.80;;;4.00;82.90;4.20;96996.00;;;;5097269;28;20444;-64
2022/03/05 09:53:57;;;;;;;10.27;5.63;;;3.80;82.70;4.00;96985.00;;;;5096211;28;20472;-64
2022/03/05 09:56:46;;;;;;;8.87;5.87;;;3.70;82.40;4.20;96996.00;;;;5094718;28;20433;-64
2022/03/05 09:59:36;;;;;;;6.33;4.40;;;3.60;83.20;4.10;97001.00;;;;5098590;28;20436;-64
2022/03/05 10:02:25;;;;;;;5.50;4.30;;;3.40;83.80;3.90;97004.00;;;;5096699;28;20440;-64
2022/03/05 10:05:17;;;;;;;7.70;4.93;;;3.40;84.40;3.30;96991.00;;;;5098658;28;20788;-65
2022/03/05 10:08:12;;;;;;;6.97;4.67;;;3.30;84.50;3.50;96991.00;;;;5101885;28;20420;-65
2022/03/05 10:11:06;;;;;;;7.10;5.33;;;3.10;85.40;3.50;96997.00;;;;5099321;27;20790;-64
2022/03/05 10:13:56;;;;;;;8.00;5.60;;;3.00;85.50;3.50;96992.00;;;;5093164;28;20457;-65
2022/03/05 10:16:47;;;;;;;6.27;4.47;;;2.90;86.20;3.20;96985.00;;;;5099430;28;20417;-65
2022/03/05 10:19:37;;;;;;;6.43;4.60;;;2.90;86.00;3.60;96997.00;;;;5104830;28;20575;-65
2022/03/05 10:22:26;;;;;;;5.63;5.00;;;2.90;86.00;3.90;97004.00;;;;5099831;28;20475;-65
2022/03/05 10:25:14;;;;;;;8.57;5.53;;;2.90;86.40;3.70;96993.00;;;;5090955;28;20460;-65
2022/03/05 10:28:07;;;;;;;8.30;5.43;;;3.00;86.00;3.90;96992.00;;;;5092662;28;20437;-65
2022/03/05 10:30:58;;;;;;;7.20;4.77;;;3.00;85.90;4.00;96988.00;;;;5094687;28;20418;-65
2022/03/05 10:33:49;;;;;;;6.87;5.00;;;3.10;85.80;4.30;96998.00;;;;5096926;28;20456;-64
2022/03/05 10:36:38;;;;;;;7.97;5.50;;;3.20;86.00;4.40;96993.00;;;;5095945;28;20462;-65
2022/03/05 10:39:27;;;;;;;5.80;4.83;;;3.30;86.60;4.60;97000.00;;;;5099399;28;20433;-65
2022/03/05 10:42:21;;;;;;;10.77;7.33;;;3.40;86.70;4.50;96991.00;;;;5095578;28;20993;-65
2022/03/05 10:45:17;;;;;;;23.93;18.10;;;3.50;85.10;4.40;96999.00;;;;5088858;28;20457;-65
2022/03/05 10:48:22;;;;;;;7.87;6.07;;;3.50;85.20;4.20;96997.00;;;;5098148;28;20421;-65
2022/03/05 10:51:16;;;;;;;10.07;7.23;;;3.60;84.60;4.00;96974.00;;;;5095566;28;20425;-65
2022/03/05 10:54:05;;;;;;;8.07;6.40;;;3.60;83.80;4.90;96978.00;;;;5101556;28;20833;-65
2022/03/05 10:56:57;;;;;;;7.70;6.17;;;3.70;84.60;5.40;96981.00;;;;5094577;28;20425;-65
2022/03/05 10:59:55;;;;;;;9.43;6.53;;;3.90;85.70;5.50;96980.00;;;;5091759;28;20428;-65
2022/03/05 11:02:51;;;;;;;8.47;5.57;;;4.10;86.00;5.50;96972.00;;;;5100880;28;20490;-66
2022/03/05 11:05:40;;;;;;;8.67;5.70;;;4.30;85.70;4.80;96971.00;;;;5100971;28;20425;-66
2022/03/05 11:08:30;;;;;;;7.67;4.83;;;4.40;84.30;4.80;96962.00;;;;5098051;28;20440;-66
2022/03/05 11:11:21;;;;;;;9.00;6.53;;;4.40;81.70;4.70;96957.00;;;;5099972;28;20958;-65
2022/03/05 11:14:14;;;;;;;5.17;4.20;;;4.40;80.50;4.70;96968.00;;;;5102377;28;20456;-65
2022/03/05 11:17:03;;;;;;;7.17;5.53;;;4.30;80.20;5.10;96951.00;;;;5100670;28;20731;-65
2022/03/05 11:19:52;;;;;;;7.33;4.93;;;4.30;80.90;5.10;96959.00;;;;5093456;28;20445;-65
2022/03/05 11:22:46;;;;;;;7.30;5.37;;;4.40;80.70;5.90;96958.00;;;;5100778;28;20830;-65
2022/03/05 11:25:36;;;;;;;8.33;5.90;;;4.50;80.90;5.50;96956.00;;;;5097904;28;20480;-65
2022/03/05 11:28:27;;;;;;;7.57;5.40;;;4.70;80.10;5.20;96952.00;;;;5100718;28;20436;-65
2022/03/05 11:31:19;;;;;;;6.67;5.63;;;4.80;79.10;5.00;96951.00;;;;5102559;28;20797;-65
2022/03/05 11:34:13;;;;;;;10.70;5.40;;;4.80;77.60;5.80;96951.00;;;;5096799;28;20218;-66
2022/03/05 11:37:15;;;;;;;15.67;6.00;;;4.80;78.80;6.20;96951.00;;;;5096640;28;20199;-65
2022/03/05 11:40:07;;;;;;;8.17;6.57;;;4.90;78.30;6.40;96956.00;;;;5101345;27;20190;-65
2022/03/05 11:43:17;;;;;;;7.30;5.93;;;5.00;78.40;6.50;96948.00;;;;5100673;28;20210;-65
2022/03/05 11:46:06;;;;;;;7.47;5.47;;;5.10;77.70;6.50;96950.00;;;;5098780;28;20198;-66
2022/03/05 11:49:02;;;;;;;7.57;6.10;;;5.20;77.20;6.20;96949.00;;;;5097007;28;20203;-65
2022/03/05 11:51:56;;;;;;;7.33;5.77;;;5.20;76.40;6.30;96941.00;;;;5099795;28;20203;-66
2022/03/05 11:55:14;;;;;;;8.33;6.50;;;5.30;75.70;5.80;96933.00;;;;5102386;28;20238;-66
2022/03/05 11:58:34;;;;;;;7.20;5.27;;;5.20;73.70;6.00;96928.00;;;;5102187;28;20202;-66
2022/03/05 12:01:39;;;;;;;5.73;4.20;;;5.10;73.40;6.10;96931.00;;;;5101078;28;20685;-66
2022/03/05 12:04:30;;;;;;;7.30;4.20;;;5.00;73.80;6.00;96920.00;;;;5101232;28;20241;-66
2022/03/05 12:07:22;;;;;;;5.30;4.63;;;5.10;73.30;6.00;96916.00;;;;5100012;28;20202;-66
2022/03/05 12:10:16;;;;;;;7.90;4.87;;;5.10;71.60;6.00;96916.00;;;;5105527;28;20187;-65
2022/03/05 12:13:07;;;;;;;6.80;4.30;;;5.00;69.80;6.30;96920.00;;;;5103451;28;20199;-65
2022/03/05 12:15:58;;;;;;;6.67;5.30;;;5.10;70.50;6.20;96909.00;;;;5097272;28;20207;-65
2022/03/05 12:18:48;;;;;;;6.27;4.67;;;5.10;70.30;6.40;96906.00;;;;5097942;28;20195;-65
2022/03/05 12:21:37;;;;;;;6.53;4.73;;;5.20;70.50;6.70;96910.00;;;;5096233;28;20192;-65
2022/03/05 12:24:27;;;;;;;8.23;5.20;;;5.30;70.70;6.70;96910.00;;;;5098011;28;20239;-65
2022/03/05 12:27:17;;;;;;;6.97;4.67;;;5.40;70.90;6.60;96921.00;;;;5103340;28;20190;-65
2022/03/05 12:30:08;;;;;;;7.30;6.00;;;5.50;70.00;6.50;96908.00;;;;5100507;27;20691;-65
2022/03/05 12:33:03;;;;;;;7.10;4.73;;;5.50;69.60;6.20;96900.00;;;;5095998;28;20202;-65
2022/03/05 12:35:54;;;;;;;6.70;4.97;;;5.40;68.60;6.20;96902.00;;;;5097827;28;20607;-65
2022/03/05 12:38:44;;;;;;;6.53;4.90;;;5.40;69.10;6.20;96900.00;;;;5097798;27;20207;-65
2022/03/05 12:41:33;;;;;;;7.60;5.30;;;5.30;69.50;6.10;96899.00;;;;5097113;28;20210;-65
2022/03/05 12:44:22;;;;;;;6.43;5.10;;;5.30;70.00;6.30;96907.00;;;;5099650;28;20227;-65